Etusivu
METAR-TAF:

METAR-TAF

Lentoasemat :

Linaten lentoasema

Milano, Italia

Leveyspiiri: 45-26N, Pituuspiiri: 009-17E, korkeus merenpinnasta: 107 m

Tämänhetkinen sää

Tämä raportti tehtiin 33 minuuttia sitten, kello 05.20 UTC
Tuuli 1 kn idästä/koillisesta
Lämpötila -2°C
Kosteus 80%
Ilmanpaine 1037 hPa
Näkyvyys 10 km tai enemmän
ei pilviä alle 1500 m:ssä eikä cumulonimbus-pilviä

METAR: LIML 240520Z 06001KT CAVOK M02/M05 Q1037 NOSIG

Aika: 06:53 (05:53 UTC)

Sääennuste

Tämä raportti tehtiin 53 minuuttia sitten, kello 05.00 UTC
Ennuste voimassa 24. päivästä klo 06 UTC - 25. päivään klo 06 UTC
Tuuli 5 kn eri suunnista
Näkyvyys 10 km tai enemmän
ei pilviä alle 1500 m:ssä eikä cumulonimbus-pilviä

TAF: LIML 240500Z 2406/2506 VRB05KT CAVOK

Säähavainnot ja -ennusteet yli 4000 lentoasemalta (METAR- ja TAF-raportit).

Käytössä olevat sääasemat on merkitty karttaan keltaisilla ja punaisilla pisteillä.

Aseta hiiri pisteen päälle nähdäksesi sääaseman nimen.

Klikkaa sitten nähdäksesi säähavainnot ja -ennusteet.

Kartan vaihtaminen: klikkaa mustalla rastilla varustettuja vihreitä pisteitä, niin voit zoomata sisään; viivalla varustettua vihreää pistettä, niin voit zoomata ulos tai vihreitä nuolia, niin pääset viereisille kartoille.


METAR-TAF: